createdAt,value
2019-03-27T00:00:04.491Z,1003.36
2019-03-27T00:01:04.476Z,1003.36
2019-03-27T00:02:04.466Z,1003.35
2019-03-27T00:03:04.465Z,1003.38
2019-03-27T00:04:04.487Z,1003.36
2019-03-27T00:05:04.441Z,1003.35
2019-03-27T00:06:04.431Z,1003.30
2019-03-27T00:07:04.435Z,1003.36
2019-03-27T00:08:04.415Z,1003.31
2019-03-27T00:09:04.475Z,1003.33
2019-03-27T00:10:04.428Z,1003.33
2019-03-27T00:11:04.377Z,1003.33
2019-03-27T00:12:14.781Z,1003.33
2019-03-27T00:13:04.353Z,1003.29
2019-03-27T00:14:04.346Z,1003.28
2019-03-27T00:15:12.727Z,1003.29
2019-03-27T00:16:05.339Z,1003.34
2019-03-27T00:17:04.322Z,1003.32
2019-03-27T00:18:04.313Z,1003.36
2019-03-27T00:19:04.292Z,1003.35
2019-03-27T00:20:04.292Z,1003.35
2019-03-27T00:21:04.312Z,1003.39
2019-03-27T00:22:04.266Z,1003.35
2019-03-27T00:23:04.254Z,1003.37
2019-03-27T00:24:04.242Z,1003.44
2019-03-27T00:25:04.236Z,1003.36
2019-03-27T00:26:04.230Z,1003.42
2019-03-27T00:27:04.236Z,1003.40
2019-03-27T00:28:04.202Z,1003.43
2019-03-27T00:29:04.193Z,1003.41
2019-03-27T00:30:04.190Z,1003.49
2019-03-27T00:31:04.172Z,1003.47
2019-03-27T00:32:04.159Z,1003.44
2019-03-27T00:33:04.177Z,1003.46
2019-03-27T00:34:05.067Z,1003.47
2019-03-27T00:35:04.134Z,1003.50
2019-03-27T00:36:04.126Z,1003.51
2019-03-27T00:37:04.114Z,1003.51
2019-03-27T00:38:04.104Z,1003.48
2019-03-27T00:39:04.130Z,1003.51
2019-03-27T00:40:04.079Z,1003.46
2019-03-27T00:41:04.068Z,1003.48
2019-03-27T00:42:04.067Z,1003.53
2019-03-27T00:43:16.096Z,1003.52
2019-03-27T00:44:04.039Z,1003.50
2019-03-27T00:45:04.071Z,1003.55
2019-03-27T00:46:04.019Z,1003.53
2019-03-27T00:47:04.011Z,1003.52
2019-03-27T00:48:03.999Z,1003.53
2019-03-27T00:49:03.998Z,1003.56
2019-03-27T00:50:03.976Z,1003.57
2019-03-27T00:51:11.114Z,1003.57
2019-03-27T00:52:03.961Z,1003.57
2019-03-27T00:53:03.950Z,1003.60
2019-03-27T00:54:03.938Z,1003.65
2019-03-27T00:55:03.931Z,1003.63
2019-03-27T00:56:03.928Z,1003.66
2019-03-27T00:57:03.946Z,1003.66
2019-03-27T00:58:03.906Z,1003.71
2019-03-27T00:59:03.893Z,1003.70
2019-03-27T01:00:03.878Z,1003.71
2019-03-27T01:01:03.868Z,1003.68
2019-03-27T01:02:03.869Z,1003.67
2019-03-27T01:03:03.895Z,1003.69
2019-03-27T01:04:03.896Z,1003.72
2019-03-27T01:05:03.829Z,1003.71
2019-03-27T01:06:03.812Z,1003.70
2019-03-27T01:07:03.809Z,1003.74
2019-03-27T01:08:03.794Z,1003.72
2019-03-27T01:09:03.801Z,1003.75
2019-03-27T01:10:03.773Z,1003.71
2019-03-27T01:11:03.770Z,1003.70
2019-03-27T01:12:03.754Z,1003.72
2019-03-27T01:13:03.811Z,1003.70
2019-03-27T01:14:03.738Z,1003.70
2019-03-27T01:15:03.724Z,1003.70
2019-03-27T01:16:03.713Z,1003.72
2019-03-27T01:17:03.702Z,1003.72
2019-03-27T01:18:03.698Z,1003.72
2019-03-27T01:19:03.695Z,1003.75
2019-03-27T01:20:03.685Z,1003.75
2019-03-27T01:21:03.659Z,1003.74
2019-03-27T01:22:13.765Z,1003.81
2019-03-27T01:23:03.639Z,1003.80
2019-03-27T01:24:03.629Z,1003.78
2019-03-27T01:25:03.625Z,1003.78
2019-03-27T01:26:03.610Z,1003.79
2019-03-27T01:27:03.614Z,1003.75
2019-03-27T01:28:03.594Z,1003.80
2019-03-27T01:29:03.577Z,1003.82
2019-03-27T01:30:03.583Z,1003.80
2019-03-27T01:31:03.597Z,1003.83
2019-03-27T01:32:03.547Z,1003.84
2019-03-27T01:33:03.540Z,1003.85
2019-03-27T01:34:03.533Z,1003.88
2019-03-27T01:35:03.528Z,1003.85
2019-03-27T01:36:03.512Z,1003.89
2019-03-27T01:37:03.515Z,1003.90
2019-03-27T01:38:03.489Z,1003.96
2019-03-27T01:39:03.480Z,1003.88
2019-03-27T01:40:04.090Z,1003.90
2019-03-27T01:41:03.501Z,1003.88
2019-03-27T01:42:03.451Z,1003.93
2019-03-27T01:43:03.443Z,1003.96
2019-03-27T01:44:03.424Z,1003.96
2019-03-27T01:45:03.421Z,1003.95
2019-03-27T01:46:03.407Z,1003.98
2019-03-27T01:47:03.438Z,1004.00
2019-03-27T01:48:03.393Z,1003.95
2019-03-27T01:49:03.378Z,1003.95
2019-03-27T01:50:03.367Z,1003.91
2019-03-27T01:51:03.354Z,1003.96
2019-03-27T01:52:03.346Z,1003.94
2019-03-27T01:53:14.134Z,1003.95
2019-03-27T01:54:03.327Z,1003.99
2019-03-27T01:55:03.316Z,1003.97
2019-03-27T01:56:03.303Z,1003.99
2019-03-27T01:57:03.293Z,1004.06
2019-03-27T01:58:03.328Z,1003.99
2019-03-27T01:59:03.273Z,1004.05
2019-03-27T02:00:03.267Z,1004.04
2019-03-27T02:01:03.266Z,1004.06
2019-03-27T02:02:03.247Z,1004.08
2019-03-27T02:03:03.236Z,1004.11
2019-03-27T02:04:03.233Z,1004.16
2019-03-27T02:05:03.214Z,1004.17
2019-03-27T02:06:03.203Z,1004.13
2019-03-27T02:07:03.194Z,1004.15
2019-03-27T02:08:03.190Z,1004.16
2019-03-27T02:09:03.229Z,1004.16
2019-03-27T02:10:03.162Z,1004.17
2019-03-27T02:11:03.151Z,1004.24
2019-03-27T02:12:03.139Z,1004.19
2019-03-27T02:13:03.137Z,1004.19
2019-03-27T02:14:03.127Z,1004.27
2019-03-27T02:15:03.128Z,1004.27
2019-03-27T02:16:07.202Z,1004.27
2019-03-27T02:17:03.094Z,1004.29
2019-03-27T02:18:03.080Z,1004.31
2019-03-27T02:19:03.074Z,1004.31
2019-03-27T02:20:03.061Z,1004.30
2019-03-27T02:21:03.062Z,1004.30
2019-03-27T02:22:03.038Z,1004.33
2019-03-27T02:23:03.039Z,1004.31
2019-03-27T02:24:12.861Z,1004.37
2019-03-27T02:25:03.015Z,1004.34
2019-03-27T02:26:03.023Z,1004.34
2019-03-27T02:27:02.991Z,1004.37
2019-03-27T02:28:02.977Z,1004.40
2019-03-27T02:29:02.977Z,1004.43
2019-03-27T02:30:02.969Z,1004.41
2019-03-27T02:31:02.947Z,1004.40
2019-03-27T02:32:02.991Z,1004.39
2019-03-27T02:33:02.935Z,1004.44
2019-03-27T02:34:02.922Z,1004.45
2019-03-27T02:35:02.910Z,1004.50
2019-03-27T02:36:02.900Z,1004.49
2019-03-27T02:37:02.890Z,1004.47
2019-03-27T02:38:02.926Z,1004.50
2019-03-27T02:39:02.876Z,1004.50
2019-03-27T02:40:02.855Z,1004.50
2019-03-27T02:41:02.847Z,1004.53
2019-03-27T02:42:02.842Z,1004.54
2019-03-27T02:43:02.833Z,1004.54
2019-03-27T02:44:02.826Z,1004.59
2019-03-27T02:45:02.813Z,1004.62
2019-03-27T02:46:02.815Z,1004.63
2019-03-27T02:47:02.806Z,1004.62
2019-03-27T02:48:02.786Z,1004.65
2019-03-27T02:49:02.788Z,1004.67
2019-03-27T02:50:02.761Z,1004.61
2019-03-27T02:51:02.749Z,1004.66
2019-03-27T02:52:02.768Z,1004.68
2019-03-27T02:53:02.728Z,1004.67
2019-03-27T02:54:02.718Z,1004.77
2019-03-27T02:55:14.203Z,1004.76
2019-03-27T02:56:02.696Z,1004.72
2019-03-27T02:57:02.698Z,1004.75
2019-03-27T02:58:02.676Z,1004.72
2019-03-27T02:59:02.668Z,1004.74
2019-03-27T03:00:02.657Z,1004.75
2019-03-27T03:01:02.695Z,1004.74
2019-03-27T03:02:02.637Z,1004.75
2019-03-27T03:03:02.628Z,1004.77
2019-03-27T03:04:02.621Z,1004.74
2019-03-27T03:05:02.612Z,1004.80
2019-03-27T03:06:02.602Z,1004.84
2019-03-27T03:07:02.614Z,1004.84
2019-03-27T03:08:02.578Z,1004.86
2019-03-27T03:09:02.566Z,1004.84
2019-03-27T03:10:02.559Z,1004.86
2019-03-27T03:11:02.546Z,1004.84
2019-03-27T03:12:02.536Z,1004.86
2019-03-27T03:13:02.566Z,1004.89
2019-03-27T03:14:02.516Z,1004.86
2019-03-27T03:15:02.507Z,1004.88
2019-03-27T03:16:02.499Z,1004.95
2019-03-27T03:17:02.483Z,1004.87
2019-03-27T03:18:02.472Z,1004.87
2019-03-27T03:19:02.499Z,1004.84
2019-03-27T03:20:02.454Z,1004.89
2019-03-27T03:21:02.443Z,1004.88
2019-03-27T03:22:02.464Z,1004.88
2019-03-27T03:23:02.421Z,1004.87
2019-03-27T03:24:02.407Z,1004.89
2019-03-27T03:25:02.414Z,1004.93
2019-03-27T03:26:13.131Z,1004.94
2019-03-27T03:27:02.378Z,1004.94
2019-03-27T03:28:02.378Z,1004.98
2019-03-27T03:29:02.401Z,1004.98
2019-03-27T03:30:02.354Z,1005.01
2019-03-27T03:31:02.555Z,1005.02
2019-03-27T03:32:02.352Z,1005.03
2019-03-27T03:33:02.329Z,1005.07
2019-03-27T03:34:02.327Z,1005.10
2019-03-27T03:35:02.428Z,1005.18
2019-03-27T03:36:02.331Z,1005.20
2019-03-27T03:37:02.447Z,1005.23
2019-03-27T03:38:02.267Z,1005.22
2019-03-27T03:39:02.261Z,1005.26
2019-03-27T03:40:02.272Z,1005.31
2019-03-27T03:41:02.248Z,1005.27
2019-03-27T03:42:02.231Z,1005.28
2019-03-27T03:43:02.219Z,1005.24
2019-03-27T03:44:02.210Z,1005.30
2019-03-27T03:45:02.252Z,1005.23
2019-03-27T03:46:02.198Z,1005.31
2019-03-27T03:47:02.190Z,1005.32
2019-03-27T03:48:02.172Z,1005.32
2019-03-27T03:49:02.161Z,1005.29
2019-03-27T03:50:02.145Z,1005.30
2019-03-27T03:51:02.132Z,1005.21
2019-03-27T03:52:02.136Z,1005.20
2019-03-27T03:53:02.152Z,1005.17
2019-03-27T03:54:02.109Z,1005.17
2019-03-27T03:55:02.131Z,1005.17
2019-03-27T03:56:02.081Z,1005.18
2019-03-27T03:57:12.327Z,1005.18
2019-03-27T03:58:02.067Z,1005.15
2019-03-27T03:59:02.088Z,1005.15
2019-03-27T04:00:02.047Z,1005.19
2019-03-27T04:01:02.050Z,1005.19
2019-03-27T04:02:02.027Z,1005.22
2019-03-27T04:03:02.019Z,1005.14
2019-03-27T04:04:02.005Z,1005.12
2019-03-27T04:05:02.034Z,1005.14
2019-03-27T04:06:02.002Z,1005.12
2019-03-27T04:07:01.975Z,1005.15
2019-03-27T04:08:01.977Z,1005.16
2019-03-27T04:09:01.949Z,1005.17
2019-03-27T04:10:01.943Z,1005.11
2019-03-27T04:11:01.965Z,1005.17
2019-03-27T04:12:01.922Z,1005.19
2019-03-27T04:13:01.921Z,1005.20
2019-03-27T04:14:01.917Z,1005.17
2019-03-27T04:15:01.990Z,1005.21
2019-03-27T04:16:01.887Z,1005.23
2019-03-27T04:17:16.316Z,1005.26
2019-03-27T04:18:02.863Z,1005.24
2019-03-27T04:19:01.861Z,1005.26
2019-03-27T04:20:01.891Z,1005.35
2019-03-27T04:21:01.857Z,1005.30
2019-03-27T04:22:01.870Z,1005.36
2019-03-27T04:23:01.820Z,1005.35
2019-03-27T04:24:01.796Z,1005.34
2019-03-27T04:25:01.824Z,1005.31
2019-03-27T04:26:09.895Z,1005.38
2019-03-27T04:27:02.774Z,1005.36
2019-03-27T04:28:12.048Z,1005.41
2019-03-27T04:29:01.755Z,1005.40
2019-03-27T04:30:01.742Z,1005.39
2019-03-27T04:31:01.766Z,1005.39
2019-03-27T04:32:01.718Z,1005.43
2019-03-27T04:33:01.709Z,1005.41
2019-03-27T04:34:01.700Z,1005.42
2019-03-27T04:35:01.683Z,1005.44
2019-03-27T04:36:01.676Z,1005.44
2019-03-27T04:37:01.708Z,1005.36
2019-03-27T04:38:01.664Z,1005.49
2019-03-27T04:39:01.643Z,1005.43
2019-03-27T04:40:01.646Z,1005.45
2019-03-27T04:41:01.625Z,1005.37
2019-03-27T04:42:01.629Z,1005.46
2019-03-27T04:43:01.624Z,1005.46
2019-03-27T04:44:01.594Z,1005.47
2019-03-27T04:45:01.583Z,1005.48
2019-03-27T04:46:01.572Z,1005.47
2019-03-27T04:47:01.569Z,1005.52
2019-03-27T04:48:01.604Z,1005.48
2019-03-27T04:49:01.555Z,1005.48
2019-03-27T04:50:01.535Z,1005.51
2019-03-27T04:51:01.521Z,1005.52
2019-03-27T04:52:01.513Z,1005.51
2019-03-27T04:53:01.504Z,1005.53
2019-03-27T04:54:01.538Z,1005.58
2019-03-27T04:55:01.483Z,1005.58
2019-03-27T04:56:01.471Z,1005.57
2019-03-27T04:57:01.462Z,1005.56
2019-03-27T04:58:01.456Z,1005.58
2019-03-27T04:59:13.241Z,1005.56
2019-03-27T05:00:01.430Z,1005.56
2019-03-27T05:01:01.422Z,1005.60
2019-03-27T05:02:01.413Z,1005.57
2019-03-27T05:03:01.402Z,1005.66
2019-03-27T05:04:01.403Z,1005.64
2019-03-27T05:05:01.407Z,1005.64
2019-03-27T05:06:01.374Z,1005.62
2019-03-27T05:07:01.364Z,1005.62
2019-03-27T05:08:01.351Z,1005.65
2019-03-27T05:09:01.341Z,1005.66
2019-03-27T05:10:01.345Z,1005.72
2019-03-27T05:11:01.358Z,1005.69
2019-03-27T05:12:01.311Z,1005.80
2019-03-27T05:13:01.298Z,1005.81
2019-03-27T05:14:01.285Z,1005.81
2019-03-27T05:15:01.278Z,1005.76
2019-03-27T05:16:01.269Z,1005.78
2019-03-27T05:17:01.266Z,1005.73
2019-03-27T05:18:01.252Z,1005.74
2019-03-27T05:19:01.240Z,1005.80
2019-03-27T05:20:01.224Z,1005.84
2019-03-27T05:21:01.219Z,1005.90
2019-03-27T05:22:01.227Z,1005.84
2019-03-27T05:23:01.195Z,1005.86
2019-03-27T05:24:01.188Z,1005.89
2019-03-27T05:25:01.177Z,1005.92
2019-03-27T05:26:01.163Z,1005.91
2019-03-27T05:27:01.160Z,1005.95
2019-03-27T05:28:01.182Z,1005.97
2019-03-27T05:29:01.137Z,1005.97
2019-03-27T05:30:11.238Z,1005.99
2019-03-27T05:31:01.110Z,1006.03
2019-03-27T05:32:01.107Z,1006.03
2019-03-27T05:33:01.092Z,1005.96
2019-03-27T05:34:01.093Z,1006.03
2019-03-27T05:35:01.073Z,1006.05
2019-03-27T05:36:01.058Z,1006.02
2019-03-27T05:37:01.047Z,1006.12
2019-03-27T05:38:01.081Z,1006.08
2019-03-27T05:39:01.042Z,1006.09
2019-03-27T05:40:01.050Z,1006.09
2019-03-27T05:41:01.009Z,1006.16
2019-03-27T05:42:01.005Z,1006.15
2019-03-27T05:43:01.421Z,1006.21
2019-03-27T05:44:00.992Z,1006.18
2019-03-27T05:45:01.010Z,1006.20
2019-03-27T05:46:00.955Z,1006.18
2019-03-27T05:47:00.950Z,1006.19
2019-03-27T05:48:00.933Z,1006.18
2019-03-27T05:49:00.934Z,1006.17
2019-03-27T05:50:00.923Z,1006.12
2019-03-27T05:51:00.939Z,1006.17
2019-03-27T05:52:00.901Z,1006.16
2019-03-27T05:53:00.883Z,1006.20
2019-03-27T05:54:00.873Z,1006.18
2019-03-27T05:55:00.864Z,1006.21
2019-03-27T05:56:00.851Z,1006.22
2019-03-27T05:57:00.863Z,1006.20
2019-03-27T05:58:00.830Z,1006.25
2019-03-27T05:59:00.830Z,1006.18
2019-03-27T06:00:00.809Z,1006.21
2019-03-27T06:01:11.585Z,1006.23
2019-03-27T06:02:00.802Z,1006.24
2019-03-27T06:03:00.819Z,1006.26
2019-03-27T06:04:00.771Z,1006.28
2019-03-27T06:05:00.761Z,1006.25
2019-03-27T06:06:00.750Z,1006.27
2019-03-27T06:07:00.740Z,1006.30
2019-03-27T06:08:00.725Z,1006.29
2019-03-27T06:09:00.758Z,1006.32
2019-03-27T06:10:00.707Z,1006.32
2019-03-27T06:11:00.695Z,1006.34
2019-03-27T06:12:00.684Z,1006.38
2019-03-27T06:13:00.679Z,1006.37
2019-03-27T06:14:00.671Z,1006.27
2019-03-27T06:15:00.665Z,1006.24
2019-03-27T06:16:00.640Z,1006.34
2019-03-27T06:17:00.662Z,1006.31
2019-03-27T06:18:12.507Z,1006.35
2019-03-27T06:19:01.611Z,1006.29
2019-03-27T06:20:00.600Z,1006.33
2019-03-27T06:21:00.600Z,1006.32
2019-03-27T06:22:00.582Z,1006.33
2019-03-27T06:23:00.583Z,1006.34
2019-03-27T06:24:00.561Z,1006.29
2019-03-27T06:25:00.578Z,1006.28
2019-03-27T06:26:00.543Z,1006.32
2019-03-27T06:27:00.533Z,1006.34
2019-03-27T06:28:00.528Z,1006.37
2019-03-27T06:29:00.528Z,1006.39
2019-03-27T06:30:00.499Z,1006.38
2019-03-27T06:31:00.505Z,1006.46
2019-03-27T06:32:10.941Z,1006.50
2019-03-27T06:33:00.470Z,1006.53
2019-03-27T06:34:00.457Z,1006.50
2019-03-27T06:35:00.462Z,1006.57
2019-03-27T06:36:00.444Z,1006.56
2019-03-27T06:37:00.427Z,1006.62
2019-03-27T06:38:00.416Z,1006.56
2019-03-27T06:39:00.407Z,1006.54
2019-03-27T06:40:00.513Z,1006.54
2019-03-27T06:41:00.425Z,1006.50
2019-03-27T06:42:00.372Z,1006.56
2019-03-27T06:43:00.367Z,1006.52
2019-03-27T06:44:00.348Z,1006.51
2019-03-27T06:45:00.377Z,1006.58
2019-03-27T06:46:00.332Z,1006.61
2019-03-27T06:47:00.364Z,1006.59
2019-03-27T06:48:00.314Z,1006.58
2019-03-27T06:49:00.295Z,1006.60
2019-03-27T06:50:00.476Z,1006.57
2019-03-27T06:51:00.277Z,1006.56
2019-03-27T06:52:00.282Z,1006.58
2019-03-27T06:53:00.265Z,1006.60
2019-03-27T06:54:00.250Z,1006.66
2019-03-27T06:55:00.472Z,1006.66
2019-03-27T06:56:00.237Z,1006.68
2019-03-27T06:57:01.258Z,1006.65
2019-03-27T06:58:00.246Z,1006.64
2019-03-27T06:59:00.220Z,1006.66
2019-03-27T07:00:00.381Z,1006.63
2019-03-27T07:01:00.173Z,1006.62
2019-03-27T07:02:00.159Z,1006.62
2019-03-27T07:03:10.280Z,1006.64
2019-03-27T07:04:10.310Z,1006.62
2019-03-27T07:05:01.134Z,1006.64
2019-03-27T07:06:00.121Z,1006.62
2019-03-27T07:07:00.106Z,1006.63
2019-03-27T07:08:00.106Z,1006.58
2019-03-27T07:09:00.148Z,1006.59
2019-03-27T07:10:00.164Z,1006.64
2019-03-27T07:11:00.068Z,1006.65
2019-03-27T07:12:00.075Z,1006.63
2019-03-27T07:13:00.059Z,1006.65
2019-03-27T07:14:00.069Z,1006.65
2019-03-27T07:15:00.043Z,1006.63
2019-03-27T07:16:00.021Z,1006.62
2019-03-27T07:17:00.020Z,1006.62
2019-03-27T07:17:59.992Z,1006.67
2019-03-27T07:19:00.011Z,1006.60
2019-03-27T07:20:00.037Z,1006.64
2019-03-27T07:20:59.963Z,1006.64
2019-03-27T07:21:59.954Z,1006.61
2019-03-27T07:22:59.965Z,1006.66
2019-03-27T07:23:59.925Z,1006.67
2019-03-27T07:24:59.936Z,1006.70
2019-03-27T07:25:59.914Z,1006.68
2019-03-27T07:26:59.898Z,1006.66
2019-03-27T07:27:59.885Z,1006.67
2019-03-27T07:28:59.884Z,1006.70
2019-03-27T07:29:59.858Z,1006.70
2019-03-27T07:30:59.861Z,1006.71
2019-03-27T07:31:59.853Z,1006.72
2019-03-27T07:32:59.838Z,1006.64
2019-03-27T07:34:09.959Z,1006.64
2019-03-27T07:34:59.808Z,1006.72
2019-03-27T07:35:59.838Z,1006.71
2019-03-27T07:36:59.794Z,1006.71
2019-03-27T07:37:59.771Z,1006.72
2019-03-27T07:39:10.448Z,1006.74
2019-03-27T07:40:00.752Z,1006.72
2019-03-27T07:40:59.741Z,1006.73
2019-03-27T07:41:59.789Z,1006.70
2019-03-27T07:42:59.722Z,1006.77
2019-03-27T07:43:59.707Z,1006.71
2019-03-27T07:44:59.703Z,1006.78
2019-03-27T07:45:59.685Z,1006.78
2019-03-27T07:46:59.688Z,1006.75
2019-03-27T07:47:59.683Z,1006.79
2019-03-27T07:48:59.661Z,1006.79
2019-03-27T07:49:59.652Z,1006.77
2019-03-27T07:50:59.643Z,1006.84
2019-03-27T07:51:59.629Z,1006.81
2019-03-27T07:52:59.640Z,1006.78
2019-03-27T07:53:59.606Z,1006.83
2019-03-27T07:54:59.598Z,1006.83
2019-03-27T07:55:59.598Z,1006.93
2019-03-27T07:56:59.565Z,1006.88
2019-03-27T07:57:59.558Z,1006.86
2019-03-27T07:58:59.903Z,1006.92
2019-03-27T07:59:59.533Z,1006.90
2019-03-27T08:00:59.525Z,1006.98
2019-03-27T08:01:59.517Z,1006.89
2019-03-27T08:02:59.514Z,1006.93
2019-03-27T08:03:59.502Z,1006.95
2019-03-27T08:05:10.331Z,1006.99
2019-03-27T08:05:59.470Z,1006.89
2019-03-27T08:06:59.461Z,1006.91
2019-03-27T08:07:59.449Z,1006.94
2019-03-27T08:08:59.473Z,1006.92
2019-03-27T08:09:59.429Z,1006.99
2019-03-27T08:10:59.413Z,1007.01
2019-03-27T08:11:59.410Z,1006.99
2019-03-27T08:12:59.401Z,1007.10
2019-03-27T08:13:59.381Z,1007.07
2019-03-27T08:14:59.427Z,1007.04
2019-03-27T08:16:00.306Z,1007.05
2019-03-27T08:16:59.351Z,1007.06
2019-03-27T08:17:59.343Z,1007.11
2019-03-27T08:19:07.482Z,1007.17
2019-03-27T08:20:00.386Z,1007.18
2019-03-27T08:20:59.307Z,1007.17
2019-03-27T08:21:59.305Z,1007.13
2019-03-27T08:22:59.289Z,1007.16
2019-03-27T08:23:59.279Z,1007.20
2019-03-27T08:24:59.262Z,1007.22
2019-03-27T08:25:59.294Z,1007.20
2019-03-27T08:26:59.245Z,1007.23
2019-03-27T08:27:59.249Z,1007.25
2019-03-27T08:28:59.226Z,1007.25
2019-03-27T08:29:59.268Z,1007.25
2019-03-27T08:30:59.203Z,1007.22
2019-03-27T08:31:59.234Z,1007.22
2019-03-27T08:32:59.183Z,1007.18
2019-03-27T08:33:59.179Z,1007.19
2019-03-27T08:34:59.191Z,1007.26
2019-03-27T08:36:09.883Z,1007.27
2019-03-27T08:36:59.144Z,1007.31
2019-03-27T08:37:59.139Z,1007.29
2019-03-27T08:38:59.119Z,1007.34
2019-03-27T08:39:59.129Z,1007.35
2019-03-27T08:40:59.092Z,1007.41
2019-03-27T08:41:59.102Z,1007.45
2019-03-27T08:42:59.087Z,1007.46
2019-03-27T08:43:59.069Z,1007.46
2019-03-27T08:44:59.057Z,1007.51
2019-03-27T08:45:59.044Z,1007.54
2019-03-27T08:46:59.104Z,1007.48
2019-03-27T08:47:59.080Z,1007.53
2019-03-27T08:48:59.024Z,1007.54
2019-03-27T08:49:59.029Z,1007.61
2019-03-27T08:50:58.994Z,1007.59
2019-03-27T08:51:58.997Z,1007.61
2019-03-27T08:52:59.104Z,1007.61
2019-03-27T08:53:59.011Z,1007.62
2019-03-27T08:54:58.947Z,1007.65
2019-03-27T08:55:58.943Z,1007.63
2019-03-27T08:56:58.936Z,1007.65
2019-03-27T08:57:58.920Z,1007.60
2019-03-27T08:58:58.921Z,1007.62
2019-03-27T08:59:58.914Z,1007.66
2019-03-27T09:00:58.901Z,1007.66
2019-03-27T09:01:58.966Z,1007.70
2019-03-27T09:02:58.888Z,1007.68
2019-03-27T09:03:58.853Z,1007.69
2019-03-27T09:04:58.860Z,1007.73
2019-03-27T09:05:58.835Z,1007.77
2019-03-27T09:07:09.913Z,1007.74
2019-03-27T09:07:58.814Z,1007.77
2019-03-27T09:08:58.802Z,1007.79
2019-03-27T09:09:58.794Z,1007.77
2019-03-27T09:10:58.776Z,1007.79
2019-03-27T09:11:58.768Z,1007.83
2019-03-27T09:12:58.807Z,1007.87
2019-03-27T09:13:58.748Z,1007.83
2019-03-27T09:14:58.738Z,1007.85
2019-03-27T09:15:58.731Z,1007.84
2019-03-27T09:16:58.716Z,1007.89
2019-03-27T09:17:58.711Z,1007.91
2019-03-27T09:18:58.715Z,1007.93
2019-03-27T09:19:58.689Z,1008.00
2019-03-27T09:20:58.676Z,1007.98
2019-03-27T09:21:58.667Z,1007.94
2019-03-27T09:22:58.668Z,1007.99
2019-03-27T09:23:58.669Z,1007.98
2019-03-27T09:24:58.629Z,1007.96
2019-03-27T09:25:58.652Z,1007.95
2019-03-27T09:26:58.619Z,1008.01
2019-03-27T09:27:58.624Z,1007.99
2019-03-27T09:28:58.654Z,1008.05
2019-03-27T09:29:58.583Z,1008.06
2019-03-27T09:30:58.570Z,1008.02
2019-03-27T09:31:58.560Z,1008.04
2019-03-27T09:32:58.552Z,1008.07
2019-03-27T09:33:58.535Z,1008.05
2019-03-27T09:34:58.573Z,1008.09
2019-03-27T09:35:58.581Z,1008.09
2019-03-27T09:36:58.506Z,1008.15
2019-03-27T09:38:09.151Z,1008.10
2019-03-27T09:38:58.486Z,1008.12
2019-03-27T09:39:58.475Z,1008.16
2019-03-27T09:40:58.471Z,1008.17
2019-03-27T09:41:58.458Z,1008.18
2019-03-27T09:42:58.446Z,1008.13
2019-03-27T09:43:58.435Z,1008.17
2019-03-27T09:44:58.423Z,1008.17
2019-03-27T09:45:58.436Z,1008.21
2019-03-27T09:46:58.409Z,1008.23
2019-03-27T09:47:58.395Z,1008.17
2019-03-27T09:48:58.387Z,1008.21
2019-03-27T09:49:58.372Z,1008.24
2019-03-27T09:50:58.384Z,1008.19
2019-03-27T09:51:58.355Z,1008.28
2019-03-27T09:52:58.351Z,1008.25
2019-03-27T09:53:58.348Z,1008.27
2019-03-27T09:54:58.332Z,1008.25
2019-03-27T09:55:58.319Z,1008.25
2019-03-27T09:56:58.407Z,1008.20
2019-03-27T09:57:58.292Z,1008.26
2019-03-27T09:58:58.334Z,1008.26
2019-03-27T09:59:58.274Z,1008.23
2019-03-27T10:00:58.268Z,1008.22
2019-03-27T10:01:58.253Z,1008.28
2019-03-27T10:02:58.259Z,1008.24
2019-03-27T10:03:58.238Z,1008.29
2019-03-27T10:04:58.227Z,1008.30
2019-03-27T10:05:58.214Z,1008.29
2019-03-27T10:06:58.203Z,1008.30
2019-03-27T10:07:58.218Z,1008.28
2019-03-27T10:09:08.589Z,1008.29
2019-03-27T10:09:58.174Z,1008.33
2019-03-27T10:10:58.165Z,1008.28
2019-03-27T10:11:58.172Z,1008.28
2019-03-27T10:12:58.147Z,1008.30
2019-03-27T10:13:58.171Z,1008.29
2019-03-27T10:14:58.124Z,1008.33
2019-03-27T10:15:58.137Z,1008.36
2019-03-27T10:16:58.115Z,1008.33
2019-03-27T10:17:58.109Z,1008.33
2019-03-27T10:18:58.092Z,1008.34
2019-03-27T10:20:03.594Z,1008.36
2019-03-27T10:20:59.072Z,1008.30
2019-03-27T10:21:58.059Z,1008.34
2019-03-27T10:22:58.051Z,1008.37
2019-03-27T10:23:58.033Z,1008.35
2019-03-27T10:24:58.081Z,1008.33
2019-03-27T10:25:58.019Z,1008.37
2019-03-27T10:26:58.011Z,1008.36
2019-03-27T10:27:58.001Z,1008.36
2019-03-27T10:28:57.991Z,1008.32
2019-03-27T10:29:57.979Z,1008.29
2019-03-27T10:30:58.013Z,1008.33
2019-03-27T10:31:57.954Z,1008.33
2019-03-27T10:32:57.944Z,1008.33
2019-03-27T10:33:57.943Z,1008.35
2019-03-27T10:34:57.930Z,1008.38
2019-03-27T10:35:57.918Z,1008.38
2019-03-27T10:36:57.929Z,1008.39
2019-03-27T10:37:57.895Z,1008.41
2019-03-27T10:38:57.887Z,1008.40
2019-03-27T10:40:07.754Z,1008.43
2019-03-27T10:40:57.866Z,1008.39
2019-03-27T10:41:57.861Z,1008.48
2019-03-27T10:42:57.863Z,1008.38
2019-03-27T10:43:57.838Z,1008.38
2019-03-27T10:44:57.911Z,1008.39
2019-03-27T10:45:57.823Z,1008.40
2019-03-27T10:46:57.832Z,1008.41
2019-03-27T10:47:57.806Z,1008.44
2019-03-27T10:48:57.804Z,1008.42
2019-03-27T10:49:57.780Z,1008.44
2019-03-27T10:50:57.779Z,1008.44
2019-03-27T10:51:57.773Z,1008.41
2019-03-27T10:52:57.827Z,1008.38
2019-03-27T10:53:57.789Z,1008.40
2019-03-27T10:54:57.733Z,1008.42
2019-03-27T10:55:57.728Z,1008.42
2019-03-27T10:56:57.717Z,1008.44
2019-03-27T10:57:57.715Z,1008.45
2019-03-27T10:58:57.703Z,1008.42
2019-03-27T10:59:57.695Z,1008.45
2019-03-27T11:00:57.681Z,1008.44
2019-03-27T11:01:57.664Z,1008.45
2019-03-27T11:02:57.730Z,1008.44
2019-03-27T11:03:57.654Z,1008.42
2019-03-27T11:04:57.655Z,1008.47
2019-03-27T11:05:57.629Z,1008.44
2019-03-27T11:06:57.622Z,1008.43
2019-03-27T11:07:57.637Z,1008.35
2019-03-27T11:08:57.599Z,1008.37
2019-03-27T11:09:57.592Z,1008.42
2019-03-27T11:11:09.007Z,1008.42
2019-03-27T11:11:57.572Z,1008.41
2019-03-27T11:12:57.568Z,1008.39
2019-03-27T11:13:57.556Z,1008.42
2019-03-27T11:14:57.558Z,1008.38
2019-03-27T11:15:57.551Z,1008.38
2019-03-27T11:16:57.567Z,1008.38
2019-03-27T11:17:57.515Z,1008.39
2019-03-27T11:18:57.514Z,1008.43
2019-03-27T11:19:57.497Z,1008.43
2019-03-27T11:20:57.502Z,1008.45
2019-03-27T11:21:57.479Z,1008.45
2019-03-27T11:22:57.491Z,1008.47
2019-03-27T11:23:57.471Z,1008.44
2019-03-27T11:24:57.457Z,1008.43
2019-03-27T11:25:57.509Z,1008.47
2019-03-27T11:26:57.480Z,1008.40
2019-03-27T11:27:57.428Z,1008.41
2019-03-27T11:28:57.421Z,1008.40
2019-03-27T11:29:57.502Z,1008.43
2019-03-27T11:30:57.439Z,1008.39
2019-03-27T11:31:57.394Z,1008.36
2019-03-27T11:32:57.415Z,1008.41
2019-03-27T11:33:57.369Z,1008.40
2019-03-27T11:34:57.363Z,1008.41
2019-03-27T11:35:57.348Z,1008.37
2019-03-27T11:36:57.343Z,1008.37
2019-03-27T11:37:57.330Z,1008.31
2019-03-27T11:38:57.334Z,1008.29
2019-03-27T11:39:57.316Z,1008.29
2019-03-27T11:40:57.306Z,1008.27
2019-03-27T11:42:07.682Z,1008.27
2019-03-27T11:42:57.290Z,1008.27
2019-03-27T11:43:57.280Z,1008.28
2019-03-27T11:44:57.267Z,1008.21
2019-03-27T11:45:57.252Z,1008.15
2019-03-27T11:46:57.253Z,1008.32
2019-03-27T11:47:57.239Z,1008.34
2019-03-27T11:48:57.397Z,1008.35
2019-03-27T11:49:57.262Z,1008.33
2019-03-27T11:50:57.210Z,1008.33
2019-03-27T11:51:57.203Z,1008.35
2019-03-27T11:52:57.186Z,1008.32
2019-03-27T11:53:57.177Z,1008.35
2019-03-27T11:54:57.173Z,1008.33
2019-03-27T11:55:57.186Z,1008.33
2019-03-27T11:56:57.168Z,1008.39
2019-03-27T11:57:57.144Z,1008.39
2019-03-27T11:58:57.133Z,1008.36
2019-03-27T11:59:57.167Z,1008.43
2019-03-27T12:00:57.114Z,1008.41
2019-03-27T12:01:57.102Z,1008.36
2019-03-27T12:02:57.096Z,1008.34
2019-03-27T12:03:57.083Z,1008.37
2019-03-27T12:04:57.072Z,1008.41